This is the latest recevied weather packets stored in our database for station/object KC9YTT-13. If no packets are shown the sender has not sent any weather packets the latest 10 day(s).
| Time | Temp. | Humidity | Pressure | Rain* | Wind** | Luminosity | Snow |
|---|---|---|---|---|---|---|---|
| 1778166763 | 13.89° C | 44% | 1012 hPa | 0 mm | - | - | - |
| 1778165560 | 13.89° C | 47% | 1011.9 hPa | 0 mm | - | - | - |
| 1778160749 | 9.44° C | 59% | 1013 hPa | 0 mm | - | - | - |
| 1778160147 | 7.78° C | 63% | 1013.1 hPa | 0 mm | - | - | - |
| 1778158944 | 7.78° C | 61% | 1013.2 hPa | 0 mm | - | - | - |
| 1778154735 | 4.44° C | 65% | 1013.1 hPa | 0 mm | - | - | - |
| 1778153532 | 4.44° C | 64% | 1013 hPa | 0 mm | - | - | - |
| 1778151728 | 3.89° C | 70% | 1012.8 hPa | 0 mm | - | - | - |
| 1778148721 | 5° C | 64% | 1012.9 hPa | 0 mm | - | - | - |
| 1778148119 | 5° C | 65% | 1013 hPa | 0 mm | - | - | - |
| 1778131280 | 7.22° C | 65% | 1014.7 hPa | 0 mm | - | - | - |
| 1778130679 | 7.22° C | 65% | 1014.7 hPa | 0 mm | - | - | - |
| 1778130077 | 7.78° C | 64% | 1014.5 hPa | 0 mm | - | - | - |
| 1778081362 | 12.78° C | 58% | 1012.5 hPa | 0 mm | - | - | - |
| 1778080760 | 11.67° C | 58% | 1012.5 hPa | 0 mm | - | - | - |
| 1778080159 | 11.67° C | 58% | 1012.5 hPa | 0 mm | - | - | - |
| 1778079558 | 11.67° C | 58% | 1012.3 hPa | 0 mm | - | - | - |
| 1778075949 | 10.56° C | 58% | 1012.2 hPa | 0 mm | - | - | - |
| 1778074144 | 9.44° C | 58% | 1012.4 hPa | 0 mm | - | - | - |
| 1778069333 | 7.22° C | 58% | 1010.9 hPa | 0 mm | - | - | - |
| 1778066927 | 7.22° C | 58% | 1010.2 hPa | 0 mm | - | - | - |
| 1778066326 | 7.22° C | 58% | 1010 hPa | 0 mm | - | - | - |
| 1778065724 | 7.22° C | 58% | 1009.6 hPa | 0 mm | - | - | - |
| 1778062717 | 7.22° C | 58% | 1009.5 hPa | 0 mm | - | - | - |
| 1778061514 | 7.22° C | 58% | 1009.3 hPa | 0 mm | - | - | - |
* Rain latest hour (hover to see other rain measurements)
** Current wind speed in m/s (hover to see current wind gust speed)